sensor_id;sensor_type;location;lat;lon;timestamp;temperature;humidity
56234;DHT22;42141;53.240;6.580;2022-09-20T00:00:49;10.70;99.90
56234;DHT22;42141;53.240;6.580;2022-09-20T00:03:15;9.50;99.90
56234;DHT22;42141;53.240;6.580;2022-09-20T00:05:43;10.50;99.90
56234;DHT22;42141;53.240;6.580;2022-09-20T00:08:12;10.10;99.90
56234;DHT22;42141;53.240;6.580;2022-09-20T00:10:39;9.80;99.90
56234;DHT22;42141;53.240;6.580;2022-09-20T00:13:06;10.40;99.90
56234;DHT22;42141;53.240;6.580;2022-09-20T00:15:33;10.20;99.90
56234;DHT22;42141;53.240;6.580;2022-09-20T00:17:59;9.30;99.90
56234;DHT22;42141;53.240;6.580;2022-09-20T00:20:25;9.30;99.90
56234;DHT22;42141;53.240;6.580;2022-09-20T00:22:51;9.30;99.90
56234;DHT22;42141;53.240;6.580;2022-09-20T00:25:18;9.40;99.90
56234;DHT22;42141;53.240;6.580;2022-09-20T00:27:44;9.30;99.90
56234;DHT22;42141;53.240;6.580;2022-09-20T00:30:11;9.80;99.90
56234;DHT22;42141;53.240;6.580;2022-09-20T00:32:38;9.30;99.90
56234;DHT22;42141;53.240;6.580;2022-09-20T00:35:04;9.30;99.90
56234;DHT22;42141;53.240;6.580;2022-09-20T00:37:37;9.30;99.90
56234;DHT22;42141;53.240;6.580;2022-09-20T00:40:05;10.30;99.90
56234;DHT22;42141;53.240;6.580;2022-09-20T00:42:32;9.30;99.90
56234;DHT22;42141;53.240;6.580;2022-09-20T00:45:04;9.30;99.90
56234;DHT22;42141;53.240;6.580;2022-09-20T00:47:58;9.50;99.90
56234;DHT22;42141;53.240;6.580;2022-09-20T00:55:52;9.10;99.90
56234;DHT22;42141;53.240;6.580;2022-09-20T00:58:19;9.00;99.90
56234;DHT22;42141;53.240;6.580;2022-09-20T01:00:47;9.00;99.90
56234;DHT22;42141;53.240;6.580;2022-09-20T01:03:16;9.40;99.90
56234;DHT22;42141;53.240;6.580;2022-09-20T01:05:44;9.20;99.90
56234;DHT22;42141;53.240;6.580;2022-09-20T01:08:10;8.90;99.90
56234;DHT22;42141;53.240;6.580;2022-09-20T01:10:37;9.70;99.90
56234;DHT22;42141;53.240;6.580;2022-09-20T01:13:03;8.80;99.90
56234;DHT22;42141;53.240;6.580;2022-09-20T01:15:31;8.80;99.90
56234;DHT22;42141;53.240;6.580;2022-09-20T01:17:59;8.70;99.90
56234;DHT22;42141;53.240;6.580;2022-09-20T01:20:31;8.70;99.90
56234;DHT22;42141;53.240;6.580;2022-09-20T01:27:52;8.50;99.90
56234;DHT22;42141;53.240;6.580;2022-09-20T01:30:21;8.50;99.90
56234;DHT22;42141;53.240;6.580;2022-09-20T01:35:26;9.40;99.90
56234;DHT22;42141;53.240;6.580;2022-09-20T01:43:57;8.20;99.90
56234;DHT22;42141;53.240;6.580;2022-09-20T01:46:34;8.20;99.90
56234;DHT22;42141;53.240;6.580;2022-09-20T02:02:39;8.00;99.90
56234;DHT22;42141;53.240;6.580;2022-09-20T02:05:17;8.00;99.90
56234;DHT22;42141;53.240;6.580;2022-09-20T02:08:03;8.80;99.90
56234;DHT22;42141;53.240;6.580;2022-09-20T02:21:52;7.90;99.90
56234;DHT22;42141;53.240;6.580;2022-09-20T02:35:45;7.70;99.90
56234;DHT22;42141;53.240;6.580;2022-09-20T02:45:54;7.70;99.90
56234;DHT22;42141;53.240;6.580;2022-09-20T02:48:29;7.70;99.90
56234;DHT22;42141;53.240;6.580;2022-09-20T03:00:27;7.60;99.90
56234;DHT22;42141;53.240;6.580;2022-09-20T03:03:27;7.50;99.90
56234;DHT22;42141;53.240;6.580;2022-09-20T03:06:22;7.50;99.90
56234;DHT22;42141;53.240;6.580;2022-09-20T03:14:15;7.40;99.90
56234;DHT22;42141;53.240;6.580;2022-09-20T03:17:00;7.40;99.90
56234;DHT22;42141;53.240;6.580;2022-09-20T03:22:51;7.30;99.90
56234;DHT22;42141;53.240;6.580;2022-09-20T03:25:50;7.20;99.90
56234;DHT22;42141;53.240;6.580;2022-09-20T03:28:49;7.20;99.90
56234;DHT22;42141;53.240;6.580;2022-09-20T03:31:37;7.20;99.90
56234;DHT22;42141;53.240;6.580;2022-09-20T03:34:42;7.10;99.90
56234;DHT22;42141;53.240;6.580;2022-09-20T03:40:06;7.10;99.90
56234;DHT22;42141;53.240;6.580;2022-09-20T03:42:47;7.10;99.90
56234;DHT22;42141;53.240;6.580;2022-09-20T03:45:18;7.10;99.90
56234;DHT22;42141;53.240;6.580;2022-09-20T03:53:56;7.00;99.90
56234;DHT22;42141;53.240;6.580;2022-09-20T03:59:18;7.70;99.90
56234;DHT22;42141;53.240;6.580;2022-09-20T04:02:27;7.00;99.90
56234;DHT22;42141;53.240;6.580;2022-09-20T04:05:02;7.10;99.90
56234;DHT22;42141;53.240;6.580;2022-09-20T04:07:46;7.80;99.90
56234;DHT22;42141;53.240;6.580;2022-09-20T04:16:24;7.20;99.90
56234;DHT22;42141;53.240;6.580;2022-09-20T04:21:55;7.20;99.90
56234;DHT22;42141;53.240;6.580;2022-09-20T04:30:16;7.20;99.90
56234;DHT22;42141;53.240;6.580;2022-09-20T04:33:18;7.20;99.90
56234;DHT22;42141;53.240;6.580;2022-09-20T04:39:43;7.20;99.90
56234;DHT22;42141;53.240;6.580;2022-09-20T04:47:59;7.20;99.90
56234;DHT22;42141;53.240;6.580;2022-09-20T04:56:20;7.10;99.90
56234;DHT22;42141;53.240;6.580;2022-09-20T05:10:22;7.20;99.90
56234;DHT22;42141;53.240;6.580;2022-09-20T05:29:32;8.20;99.90
56234;DHT22;42141;53.240;6.580;2022-09-20T05:32:02;8.40;99.90
56234;DHT22;42141;53.240;6.580;2022-09-20T05:40:34;8.80;99.90
56234;DHT22;42141;53.240;6.580;2022-09-20T05:48:42;9.00;99.90
56234;DHT22;42141;53.240;6.580;2022-09-20T05:56:33;9.10;99.90
56234;DHT22;42141;53.240;6.580;2022-09-20T05:59:24;9.10;99.90
56234;DHT22;42141;53.240;6.580;2022-09-20T06:02:08;9.10;99.90
56234;DHT22;42141;53.240;6.580;2022-09-20T06:04:43;9.10;99.90
56234;DHT22;42141;53.240;6.580;2022-09-20T06:07:30;9.10;99.90
56234;DHT22;42141;53.240;6.580;2022-09-20T06:13:03;9.20;99.90
56234;DHT22;42141;53.240;6.580;2022-09-20T06:16:09;9.30;99.90
56234;DHT22;42141;53.240;6.580;2022-09-20T06:21:42;9.70;99.90
56234;DHT22;42141;53.240;6.580;2022-09-20T06:26:51;9.90;99.90
56234;DHT22;42141;53.240;6.580;2022-09-20T06:29:21;10.00;99.90
56234;DHT22;42141;53.240;6.580;2022-09-20T06:31:48;10.20;99.90
56234;DHT22;42141;53.240;6.580;2022-09-20T06:34:17;10.70;99.90
56234;DHT22;42141;53.240;6.580;2022-09-20T06:36:47;10.40;99.90
56234;DHT22;42141;53.240;6.580;2022-09-20T06:39:47;10.70;99.90
56234;DHT22;42141;53.240;6.580;2022-09-20T06:42:34;10.70;99.90
56234;DHT22;42141;53.240;6.580;2022-09-20T06:45:00;10.70;99.90
56234;DHT22;42141;53.240;6.580;2022-09-20T06:47:26;11.00;99.90
56234;DHT22;42141;53.240;6.580;2022-09-20T06:49:52;10.70;99.90
56234;DHT22;42141;53.240;6.580;2022-09-20T06:52:21;10.70;99.90
56234;DHT22;42141;53.240;6.580;2022-09-20T06:54:50;10.80;99.90
56234;DHT22;42141;53.240;6.580;2022-09-20T06:57:34;10.80;99.90
56234;DHT22;42141;53.240;6.580;2022-09-20T07:00:00;10.80;99.90
56234;DHT22;42141;53.240;6.580;2022-09-20T07:02:26;10.80;99.90
56234;DHT22;42141;53.240;6.580;2022-09-20T07:04:52;10.90;99.90
56234;DHT22;42141;53.240;6.580;2022-09-20T07:07:19;10.90;99.90
56234;DHT22;42141;53.240;6.580;2022-09-20T07:09:45;11.00;99.90
56234;DHT22;42141;53.240;6.580;2022-09-20T07:12:12;11.00;99.90
56234;DHT22;42141;53.240;6.580;2022-09-20T07:14:38;11.00;99.90
56234;DHT22;42141;53.240;6.580;2022-09-20T07:17:04;11.00;99.90
56234;DHT22;42141;53.240;6.580;2022-09-20T07:19:30;11.00;99.90
56234;DHT22;42141;53.240;6.580;2022-09-20T07:21:56;11.00;99.90
56234;DHT22;42141;53.240;6.580;2022-09-20T07:24:22;12.00;99.90
56234;DHT22;42141;53.240;6.580;2022-09-20T07:27:17;11.20;99.90
56234;DHT22;42141;53.240;6.580;2022-09-20T07:29:42;11.10;99.90
56234;DHT22;42141;53.240;6.580;2022-09-20T07:32:08;12.00;99.90
56234;DHT22;42141;53.240;6.580;2022-09-20T07:34:34;11.20;99.90
56234;DHT22;42141;53.240;6.580;2022-09-20T07:36:59;11.40;99.90
56234;DHT22;42141;53.240;6.580;2022-09-20T07:39:25;11.30;99.90
56234;DHT22;42141;53.240;6.580;2022-09-20T07:41:51;11.40;99.90
56234;DHT22;42141;53.240;6.580;2022-09-20T07:44:17;12.40;99.90
56234;DHT22;42141;53.240;6.580;2022-09-20T07:46:53;11.80;99.90
56234;DHT22;42141;53.240;6.580;2022-09-20T07:49:20;11.80;99.90
56234;DHT22;42141;53.240;6.580;2022-09-20T07:51:46;13.10;99.90
56234;DHT22;42141;53.240;6.580;2022-09-20T07:54:13;12.10;99.90
56234;DHT22;42141;53.240;6.580;2022-09-20T07:56:39;13.40;99.90
56234;DHT22;42141;53.240;6.580;2022-09-20T07:59:04;12.50;99.90
56234;DHT22;42141;53.240;6.580;2022-09-20T08:01:30;12.70;99.90
56234;DHT22;42141;53.240;6.580;2022-09-20T08:03:56;12.90;99.90
56234;DHT22;42141;53.240;6.580;2022-09-20T08:06:22;13.10;99.90
56234;DHT22;42141;53.240;6.580;2022-09-20T08:08:48;14.10;99.90
56234;DHT22;42141;53.240;6.580;2022-09-20T08:11:23;13.50;99.90
56234;DHT22;42141;53.240;6.580;2022-09-20T08:13:53;13.80;99.90
56234;DHT22;42141;53.240;6.580;2022-09-20T08:16:20;14.00;99.90
56234;DHT22;42141;53.240;6.580;2022-09-20T08:18:48;14.20;99.90
56234;DHT22;42141;53.240;6.580;2022-09-20T08:21:14;14.40;99.90
56234;DHT22;42141;53.240;6.580;2022-09-20T08:23:42;14.50;99.90
56234;DHT22;42141;53.240;6.580;2022-09-20T08:26:10;15.40;99.90
56234;DHT22;42141;53.240;6.580;2022-09-20T08:28:38;14.50;99.90
56234;DHT22;42141;53.240;6.580;2022-09-20T08:31:06;14.60;99.90
56234;DHT22;42141;53.240;6.580;2022-09-20T08:33:33;14.70;99.90
56234;DHT22;42141;53.240;6.580;2022-09-20T08:36:01;14.80;99.90
56234;DHT22;42141;53.240;6.580;2022-09-20T08:38:26;15.00;99.90
56234;DHT22;42141;53.240;6.580;2022-09-20T08:40:59;15.20;99.90
56234;DHT22;42141;53.240;6.580;2022-09-20T08:43:29;15.30;99.90
56234;DHT22;42141;53.240;6.580;2022-09-20T08:45:58;15.40;99.90
56234;DHT22;42141;53.240;6.580;2022-09-20T08:48:28;15.40;99.90
56234;DHT22;42141;53.240;6.580;2022-09-20T08:50:58;15.80;99.90
56234;DHT22;42141;53.240;6.580;2022-09-20T08:53:25;15.10;99.90
56234;DHT22;42141;53.240;6.580;2022-09-20T08:55:54;15.00;99.90
56234;DHT22;42141;53.240;6.580;2022-09-20T08:58:22;14.90;99.90
56234;DHT22;42141;53.240;6.580;2022-09-20T09:00:48;14.90;99.90
56234;DHT22;42141;53.240;6.580;2022-09-20T09:03:15;15.00;99.90
56234;DHT22;42141;53.240;6.580;2022-09-20T09:05:52;15.90;99.90
56234;DHT22;42141;53.240;6.580;2022-09-20T09:08:33;15.30;99.90
56234;DHT22;42141;53.240;6.580;2022-09-20T09:11:14;15.40;99.90
56234;DHT22;42141;53.240;6.580;2022-09-20T09:14:02;15.50;99.90
56234;DHT22;42141;53.240;6.580;2022-09-20T09:16:51;15.70;99.90
56234;DHT22;42141;53.240;6.580;2022-09-20T09:19:30;15.90;99.90
56234;DHT22;42141;53.240;6.580;2022-09-20T09:22:02;16.10;99.90
56234;DHT22;42141;53.240;6.580;2022-09-20T09:24:28;16.30;99.90
56234;DHT22;42141;53.240;6.580;2022-09-20T09:29:32;15.60;99.90
56234;DHT22;42141;53.240;6.580;2022-09-20T09:32:21;16.40;99.90
56234;DHT22;42141;53.240;6.580;2022-09-20T09:34:48;16.50;99.90
56234;DHT22;42141;53.240;6.580;2022-09-20T09:37:30;16.50;99.90
56234;DHT22;42141;53.240;6.580;2022-09-20T09:40:16;16.50;99.90
56234;DHT22;42141;53.240;6.580;2022-09-20T09:42:59;16.50;99.90
56234;DHT22;42141;53.240;6.580;2022-09-20T09:45:35;16.50;99.90
56234;DHT22;42141;53.240;6.580;2022-09-20T09:48:18;16.50;99.90
56234;DHT22;42141;53.240;6.580;2022-09-20T09:50:44;16.50;99.90
56234;DHT22;42141;53.240;6.580;2022-09-20T09:53:14;16.50;99.90
56234;DHT22;42141;53.240;6.580;2022-09-20T09:58:30;16.60;99.90
56234;DHT22;42141;53.240;6.580;2022-09-20T10:01:00;16.50;99.90
56234;DHT22;42141;53.240;6.580;2022-09-20T10:06:29;16.60;99.90
56234;DHT22;42141;53.240;6.580;2022-09-20T10:17:24;16.70;99.90
56234;DHT22;42141;53.240;6.580;2022-09-20T10:23:02;16.70;99.90
56234;DHT22;42141;53.240;6.580;2022-09-20T10:36:44;17.30;99.90
56234;DHT22;42141;53.240;6.580;2022-09-20T10:39:17;17.30;99.90
56234;DHT22;42141;53.240;6.580;2022-09-20T10:47:44;17.00;99.90
56234;DHT22;42141;53.240;6.580;2022-09-20T10:50:17;17.40;99.90
56234;DHT22;42141;53.240;6.580;2022-09-20T11:07:00;17.30;99.90
56234;DHT22;42141;53.240;6.580;2022-09-20T11:09:36;17.30;99.90
56234;DHT22;42141;53.240;6.580;2022-09-20T11:14:40;17.60;99.90
56234;DHT22;42141;53.240;6.580;2022-09-20T11:17:24;17.60;99.90
56234;DHT22;42141;53.240;6.580;2022-09-20T11:20:04;17.50;99.90
56234;DHT22;42141;53.240;6.580;2022-09-20T11:22:54;17.50;99.90
56234;DHT22;42141;53.240;6.580;2022-09-20T11:25:47;17.30;99.90
56234;DHT22;42141;53.240;6.580;2022-09-20T11:28:30;17.60;99.90
56234;DHT22;42141;53.240;6.580;2022-09-20T11:33:39;18.10;99.90
56234;DHT22;42141;53.240;6.580;2022-09-20T11:36:14;18.30;99.90
56234;DHT22;42141;53.240;6.580;2022-09-20T11:38:59;18.60;99.90
56234;DHT22;42141;53.240;6.580;2022-09-20T11:41:30;18.80;99.90
56234;DHT22;42141;53.240;6.580;2022-09-20T11:44:04;18.90;99.90
56234;DHT22;42141;53.240;6.580;2022-09-20T11:46:50;18.80;99.90
56234;DHT22;42141;53.240;6.580;2022-09-20T11:52:09;18.20;99.90
56234;DHT22;42141;53.240;6.580;2022-09-20T11:57:04;18.20;99.90
56234;DHT22;42141;53.240;6.580;2022-09-20T11:59:35;18.10;99.90
56234;DHT22;42141;53.240;6.580;2022-09-20T12:02:10;17.90;99.90
56234;DHT22;42141;53.240;6.580;2022-09-20T12:04:42;17.70;99.90
56234;DHT22;42141;53.240;6.580;2022-09-20T12:09:59;17.30;99.90
56234;DHT22;42141;53.240;6.580;2022-09-20T12:15:06;17.00;99.90
56234;DHT22;42141;53.240;6.580;2022-09-20T12:37:25;17.80;99.90
56234;DHT22;42141;53.240;6.580;2022-09-20T12:39:31;18.10;99.90
56234;DHT22;42141;53.240;6.580;2022-09-20T12:41:59;18.40;99.90
56234;DHT22;42141;53.240;6.580;2022-09-20T12:47:20;18.80;99.90
56234;DHT22;42141;53.240;6.580;2022-09-20T12:55:45;19.00;99.90
56234;DHT22;42141;53.240;6.580;2022-09-20T12:58:34;19.10;99.90
56234;DHT22;42141;53.240;6.580;2022-09-20T13:03:46;19.10;99.90
56234;DHT22;42141;53.240;6.580;2022-09-20T13:17:05;19.70;99.90
56234;DHT22;42141;53.240;6.580;2022-09-20T13:19:43;19.60;99.90
56234;DHT22;42141;53.240;6.580;2022-09-20T13:25:00;19.30;99.90
56234;DHT22;42141;53.240;6.580;2022-09-20T13:27:39;19.20;99.90
56234;DHT22;42141;53.240;6.580;2022-09-20T13:30:24;19.20;99.90
56234;DHT22;42141;53.240;6.580;2022-09-20T13:32:51;19.40;99.90
56234;DHT22;42141;53.240;6.580;2022-09-20T13:35:21;19.40;99.90
56234;DHT22;42141;53.240;6.580;2022-09-20T13:37:59;19.30;99.90
56234;DHT22;42141;53.240;6.580;2022-09-20T13:40:45;19.20;99.90
56234;DHT22;42141;53.240;6.580;2022-09-20T13:43:39;19.10;99.90
56234;DHT22;42141;53.240;6.580;2022-09-20T13:48:34;18.80;99.90
56234;DHT22;42141;53.240;6.580;2022-09-20T13:51:00;18.70;99.90
56234;DHT22;42141;53.240;6.580;2022-09-20T13:53:28;18.60;99.90
56234;DHT22;42141;53.240;6.580;2022-09-20T13:55:55;18.40;99.90
56234;DHT22;42141;53.240;6.580;2022-09-20T13:58:54;18.30;99.90
56234;DHT22;42141;53.240;6.580;2022-09-20T14:01:52;18.20;99.90
56234;DHT22;42141;53.240;6.580;2022-09-20T14:04:27;18.20;99.90
56234;DHT22;42141;53.240;6.580;2022-09-20T14:06:56;18.10;99.90
56234;DHT22;42141;53.240;6.580;2022-09-20T14:09:33;18.10;99.90
56234;DHT22;42141;53.240;6.580;2022-09-20T14:12:03;18.00;99.90
56234;DHT22;42141;53.240;6.580;2022-09-20T14:14:39;17.90;99.90
56234;DHT22;42141;53.240;6.580;2022-09-20T14:17:06;18.00;99.90
56234;DHT22;42141;53.240;6.580;2022-09-20T14:19:40;18.20;99.90
56234;DHT22;42141;53.240;6.580;2022-09-20T14:22:19;18.50;99.90
56234;DHT22;42141;53.240;6.580;2022-09-20T14:24:57;18.70;99.90
56234;DHT22;42141;53.240;6.580;2022-09-20T14:27:24;18.90;99.90
56234;DHT22;42141;53.240;6.580;2022-09-20T14:29:51;18.80;99.90
56234;DHT22;42141;53.240;6.580;2022-09-20T14:39:55;18.40;99.90
56234;DHT22;42141;53.240;6.580;2022-09-20T14:50:41;18.10;99.90
56234;DHT22;42141;53.240;6.580;2022-09-20T14:56:29;17.60;99.90
56234;DHT22;42141;53.240;6.580;2022-09-20T14:58:25;17.40;99.90
56234;DHT22;42141;53.240;6.580;2022-09-20T15:01:04;17.30;99.90
56234;DHT22;42141;53.240;6.580;2022-09-20T15:03:39;17.20;99.90
56234;DHT22;42141;53.240;6.580;2022-09-20T15:06:09;17.10;99.90
56234;DHT22;42141;53.240;6.580;2022-09-20T15:08:39;17.10;99.90
56234;DHT22;42141;53.240;6.580;2022-09-20T15:11:04;17.00;99.90
56234;DHT22;42141;53.240;6.580;2022-09-20T15:13:31;16.90;99.90
56234;DHT22;42141;53.240;6.580;2022-09-20T15:15:57;17.10;99.90
56234;DHT22;42141;53.240;6.580;2022-09-20T15:18:28;16.70;99.90
56234;DHT22;42141;53.240;6.580;2022-09-20T15:20:56;16.60;99.90
56234;DHT22;42141;53.240;6.580;2022-09-20T15:23:22;16.70;99.90
56234;DHT22;42141;53.240;6.580;2022-09-20T15:25:52;16.50;99.90
56234;DHT22;42141;53.240;6.580;2022-09-20T15:28:18;16.40;99.90
56234;DHT22;42141;53.240;6.580;2022-09-20T15:30:46;16.40;99.90
56234;DHT22;42141;53.240;6.580;2022-09-20T15:33:13;16.40;99.90
56234;DHT22;42141;53.240;6.580;2022-09-20T15:35:39;16.40;99.90
56234;DHT22;42141;53.240;6.580;2022-09-20T15:38:06;16.30;99.90
56234;DHT22;42141;53.240;6.580;2022-09-20T15:40:34;17.00;99.90
56234;DHT22;42141;53.240;6.580;2022-09-20T15:43:00;16.20;99.90
56234;DHT22;42141;53.240;6.580;2022-09-20T15:45:26;16.20;99.90
56234;DHT22;42141;53.240;6.580;2022-09-20T15:47:53;16.10;99.90
56234;DHT22;42141;53.240;6.580;2022-09-20T15:50:20;16.00;99.90
56234;DHT22;42141;53.240;6.580;2022-09-20T15:52:50;16.00;99.90
56234;DHT22;42141;53.240;6.580;2022-09-20T15:55:19;15.90;99.90
56234;DHT22;42141;53.240;6.580;2022-09-20T15:57:46;15.90;99.90
56234;DHT22;42141;53.240;6.580;2022-09-20T16:00:14;15.90;99.90
56234;DHT22;42141;53.240;6.580;2022-09-20T16:02:42;15.80;99.90
56234;DHT22;42141;53.240;6.580;2022-09-20T16:05:08;15.70;99.90
56234;DHT22;42141;53.240;6.580;2022-09-20T16:07:35;15.90;99.90
56234;DHT22;42141;53.240;6.580;2022-09-20T16:10:01;15.60;99.90
56234;DHT22;42141;53.240;6.580;2022-09-20T16:12:27;15.60;99.90
56234;DHT22;42141;53.240;6.580;2022-09-20T16:14:53;16.10;99.90
56234;DHT22;42141;53.240;6.580;2022-09-20T16:17:18;15.60;99.90
56234;DHT22;42141;53.240;6.580;2022-09-20T16:20:06;15.60;99.90
56234;DHT22;42141;53.240;6.580;2022-09-20T16:22:32;15.50;99.90
56234;DHT22;42141;53.240;6.580;2022-09-20T16:24:58;15.50;99.90
56234;DHT22;42141;53.240;6.580;2022-09-20T16:27:26;15.40;99.90
56234;DHT22;42141;53.240;6.580;2022-09-20T16:29:52;15.40;99.90
56234;DHT22;42141;53.240;6.580;2022-09-20T16:32:17;15.40;99.90
56234;DHT22;42141;53.240;6.580;2022-09-20T16:34:43;15.30;99.90
56234;DHT22;42141;53.240;6.580;2022-09-20T16:37:11;15.30;99.90
56234;DHT22;42141;53.240;6.580;2022-09-20T16:39:41;15.20;99.90
56234;DHT22;42141;53.240;6.580;2022-09-20T16:42:07;15.20;99.90
56234;DHT22;42141;53.240;6.580;2022-09-20T16:44:36;15.20;99.90
56234;DHT22;42141;53.240;6.580;2022-09-20T16:47:04;15.10;99.90
56234;DHT22;42141;53.240;6.580;2022-09-20T16:49:36;15.10;99.90
56234;DHT22;42141;53.240;6.580;2022-09-20T16:52:09;15.10;99.90
56234;DHT22;42141;53.240;6.580;2022-09-20T16:54:35;15.10;99.90
56234;DHT22;42141;53.240;6.580;2022-09-20T16:57:01;15.00;99.90
56234;DHT22;42141;53.240;6.580;2022-09-20T16:59:27;15.00;99.90
56234;DHT22;42141;53.240;6.580;2022-09-20T17:01:53;15.00;99.90
56234;DHT22;42141;53.240;6.580;2022-09-20T17:04:19;14.90;99.90
56234;DHT22;42141;53.240;6.580;2022-09-20T17:06:46;14.90;99.90
56234;DHT22;42141;53.240;6.580;2022-09-20T17:09:13;14.90;99.90
56234;DHT22;42141;53.240;6.580;2022-09-20T17:11:47;14.80;99.90
56234;DHT22;42141;53.240;6.580;2022-09-20T17:14:16;14.80;99.90
56234;DHT22;42141;53.240;6.580;2022-09-20T17:16:42;15.00;99.90
56234;DHT22;42141;53.240;6.580;2022-09-20T17:19:18;14.60;99.90
56234;DHT22;42141;53.240;6.580;2022-09-20T17:22:04;14.60;99.90
56234;DHT22;42141;53.240;6.580;2022-09-20T17:24:33;14.50;99.90
56234;DHT22;42141;53.240;6.580;2022-09-20T17:27:02;14.50;99.90
56234;DHT22;42141;53.240;6.580;2022-09-20T17:29:28;14.30;99.90
56234;DHT22;42141;53.240;6.580;2022-09-20T17:31:54;14.80;99.90
56234;DHT22;42141;53.240;6.580;2022-09-20T17:34:24;14.20;99.90
56234;DHT22;42141;53.240;6.580;2022-09-20T17:36:51;15.00;99.90
56234;DHT22;42141;53.240;6.580;2022-09-20T17:39:18;13.30;99.90
56234;DHT22;42141;53.240;6.580;2022-09-20T17:41:46;13.90;99.90
56234;DHT22;42141;53.240;6.580;2022-09-20T17:44:14;13.90;99.90
56234;DHT22;42141;53.240;6.580;2022-09-20T17:46:42;13.70;99.90
56234;DHT22;42141;53.240;6.580;2022-09-20T17:49:11;13.60;99.90
56234;DHT22;42141;53.240;6.580;2022-09-20T17:51:41;13.30;99.90
56234;DHT22;42141;53.240;6.580;2022-09-20T17:54:09;13.40;99.90
56234;DHT22;42141;53.240;6.580;2022-09-20T17:56:44;13.40;99.90
56234;DHT22;42141;53.240;6.580;2022-09-20T17:59:11;13.20;99.90
56234;DHT22;42141;53.240;6.580;2022-09-20T18:01:43;13.10;99.90
56234;DHT22;42141;53.240;6.580;2022-09-20T18:04:10;12.90;99.90
56234;DHT22;42141;53.240;6.580;2022-09-20T18:06:55;13.00;99.90
56234;DHT22;42141;53.240;6.580;2022-09-20T18:09:26;12.80;99.90
56234;DHT22;42141;53.240;6.580;2022-09-20T18:11:54;12.80;99.90
56234;DHT22;42141;53.240;6.580;2022-09-20T18:14:22;12.80;99.90
56234;DHT22;42141;53.240;6.580;2022-09-20T18:16:53;13.10;99.90
56234;DHT22;42141;53.240;6.580;2022-09-20T18:19:23;12.50;99.90
56234;DHT22;42141;53.240;6.580;2022-09-20T18:21:51;12.50;99.90
56234;DHT22;42141;53.240;6.580;2022-09-20T18:24:26;12.40;99.90
56234;DHT22;42141;53.240;6.580;2022-09-20T18:27:16;12.30;99.90
56234;DHT22;42141;53.240;6.580;2022-09-20T18:29:41;12.20;99.90
56234;DHT22;42141;53.240;6.580;2022-09-20T18:32:08;12.10;99.90
56234;DHT22;42141;53.240;6.580;2022-09-20T18:34:34;12.10;99.90
56234;DHT22;42141;53.240;6.580;2022-09-20T18:37:00;12.00;99.90
56234;DHT22;42141;53.240;6.580;2022-09-20T18:39:30;12.60;99.90
56234;DHT22;42141;53.240;6.580;2022-09-20T18:42:17;12.80;99.90
56234;DHT22;42141;53.240;6.580;2022-09-20T18:45:01;11.80;99.90
56234;DHT22;42141;53.240;6.580;2022-09-20T18:47:28;12.50;99.90
56234;DHT22;42141;53.240;6.580;2022-09-20T18:50:17;11.60;99.90
56234;DHT22;42141;53.240;6.580;2022-09-20T18:52:43;11.60;99.90
56234;DHT22;42141;53.240;6.580;2022-09-20T18:55:11;12.40;99.90
56234;DHT22;42141;53.240;6.580;2022-09-20T18:57:37;11.50;99.90
56234;DHT22;42141;53.240;6.580;2022-09-20T19:00:04;11.50;99.90
56234;DHT22;42141;53.240;6.580;2022-09-20T19:08:54;11.40;99.90
56234;DHT22;42141;53.240;6.580;2022-09-20T19:11:38;11.30;99.90
56234;DHT22;42141;53.240;6.580;2022-09-20T19:14:11;11.20;99.90
56234;DHT22;42141;53.240;6.580;2022-09-20T19:16:59;11.20;99.90
56234;DHT22;42141;53.240;6.580;2022-09-20T19:19:48;11.20;99.90
56234;DHT22;42141;53.240;6.580;2022-09-20T19:22:48;11.10;99.90
56234;DHT22;42141;53.240;6.580;2022-09-20T19:25:17;11.10;99.90
56234;DHT22;42141;53.240;6.580;2022-09-20T19:27:50;12.10;99.90
56234;DHT22;42141;53.240;6.580;2022-09-20T19:30:24;10.90;99.90
56234;DHT22;42141;53.240;6.580;2022-09-20T19:32:50;10.90;99.90
56234;DHT22;42141;53.240;6.580;2022-09-20T19:45:45;10.80;99.90
56234;DHT22;42141;53.240;6.580;2022-09-20T19:48:08;10.70;99.90
56234;DHT22;42141;53.240;6.580;2022-09-20T19:50:40;10.70;99.90
56234;DHT22;42141;53.240;6.580;2022-09-20T19:53:08;10.70;99.90
56234;DHT22;42141;53.240;6.580;2022-09-20T19:55:34;10.60;99.90
56234;DHT22;42141;53.240;6.580;2022-09-20T20:00:51;10.50;99.90
56234;DHT22;42141;53.240;6.580;2022-09-20T20:03:18;10.50;99.90
56234;DHT22;42141;53.240;6.580;2022-09-20T20:08:35;10.40;99.90
56234;DHT22;42141;53.240;6.580;2022-09-20T20:14:16;10.40;99.90
56234;DHT22;42141;53.240;6.580;2022-09-20T20:24:54;10.20;99.90
56234;DHT22;42141;53.240;6.580;2022-09-20T20:27:21;10.10;99.90
56234;DHT22;42141;53.240;6.580;2022-09-20T20:29:48;10.90;99.90
56234;DHT22;42141;53.240;6.580;2022-09-20T20:32:14;10.10;99.90
56234;DHT22;42141;53.240;6.580;2022-09-20T20:34:40;10.90;99.90
56234;DHT22;42141;53.240;6.580;2022-09-20T20:37:06;10.70;99.90
56234;DHT22;42141;53.240;6.580;2022-09-20T20:39:32;10.20;99.90
56234;DHT22;42141;53.240;6.580;2022-09-20T20:41:58;10.40;99.90
56234;DHT22;42141;53.240;6.580;2022-09-20T20:44:29;11.10;99.90
56234;DHT22;42141;53.240;6.580;2022-09-20T20:46:56;10.70;99.90
56234;DHT22;42141;53.240;6.580;2022-09-20T20:49:22;9.80;99.90
56234;DHT22;42141;53.240;6.580;2022-09-20T20:51:47;9.80;99.90
56234;DHT22;42141;53.240;6.580;2022-09-20T20:54:14;9.90;99.90
56234;DHT22;42141;53.240;6.580;2022-09-20T20:56:40;9.70;99.90
56234;DHT22;42141;53.240;6.580;2022-09-20T20:59:05;9.80;99.90
56234;DHT22;42141;53.240;6.580;2022-09-20T21:01:39;10.40;99.90
56234;DHT22;42141;53.240;6.580;2022-09-20T21:04:09;9.60;99.90
56234;DHT22;42141;53.240;6.580;2022-09-20T21:06:36;9.60;99.90
56234;DHT22;42141;53.240;6.580;2022-09-20T21:09:04;10.10;99.90
56234;DHT22;42141;53.240;6.580;2022-09-20T21:11:38;9.50;99.90
56234;DHT22;42141;53.240;6.580;2022-09-20T21:14:09;9.40;99.90
56234;DHT22;42141;53.240;6.580;2022-09-20T21:16:40;9.40;99.90
56234;DHT22;42141;53.240;6.580;2022-09-20T21:19:11;9.40;99.90
56234;DHT22;42141;53.240;6.580;2022-09-20T21:21:43;9.50;99.90
56234;DHT22;42141;53.240;6.580;2022-09-20T21:24:12;9.30;99.90
56234;DHT22;42141;53.240;6.580;2022-09-20T21:26:39;9.20;99.90
56234;DHT22;42141;53.240;6.580;2022-09-20T21:29:12;9.20;99.90
56234;DHT22;42141;53.240;6.580;2022-09-20T21:31:43;10.30;99.90
56234;DHT22;42141;53.240;6.580;2022-09-20T21:34:10;10.00;99.90
56234;DHT22;42141;53.240;6.580;2022-09-20T21:36:41;9.10;99.90
56234;DHT22;42141;53.240;6.580;2022-09-20T21:39:08;9.10;99.90
56234;DHT22;42141;53.240;6.580;2022-09-20T21:41:36;9.10;99.90
56234;DHT22;42141;53.240;6.580;2022-09-20T21:44:04;9.30;99.90
56234;DHT22;42141;53.240;6.580;2022-09-20T21:46:35;10.20;99.90